createdAt,value
2022-07-25T00:00:31.841Z,2.92
2022-07-25T00:03:00.005Z,2.75
2022-07-25T00:05:28.299Z,2.80
2022-07-25T00:07:57.698Z,2.60
2022-07-25T00:10:25.856Z,2.60
2022-07-25T00:12:53.729Z,2.35
2022-07-25T00:15:21.681Z,2.63
2022-07-25T00:17:49.671Z,2.30
2022-07-25T00:20:17.643Z,2.78
2022-07-25T00:22:45.694Z,2.47
2022-07-25T00:25:15.062Z,2.42
2022-07-25T00:27:43.018Z,2.53
2022-07-25T00:30:12.070Z,2.85
2022-07-25T00:32:40.031Z,2.33
2022-07-25T00:35:08.460Z,2.22
2022-07-25T00:37:36.597Z,2.30
2022-07-25T00:40:05.367Z,2.15
2022-07-25T00:42:35.058Z,2.50
2022-07-25T00:45:03.096Z,2.50
2022-07-25T00:47:31.466Z,2.33
2022-07-25T00:49:59.409Z,2.58
2022-07-25T00:52:27.676Z,2.70
2022-07-25T00:54:56.847Z,2.55
2022-07-25T00:57:24.860Z,2.75
2022-07-25T00:59:54.174Z,2.50
2022-07-25T01:02:22.423Z,2.58
2022-07-25T01:04:50.386Z,2.70
2022-07-25T01:07:18.615Z,2.50
2022-07-25T01:09:47.199Z,2.65
2022-07-25T01:12:15.105Z,2.70
2022-07-25T01:14:43.092Z,2.38
2022-07-25T01:17:13.423Z,3.13
2022-07-25T01:19:41.350Z,2.60
2022-07-25T01:22:11.199Z,2.75
2022-07-25T01:24:40.861Z,2.60
2022-07-25T01:27:08.923Z,2.35
2022-07-25T01:29:45.394Z,2.17
2022-07-25T01:32:13.633Z,2.42
2022-07-25T01:34:41.487Z,2.63
2022-07-25T01:37:10.825Z,2.55
2022-07-25T01:39:38.707Z,2.45
2022-07-25T01:42:07.570Z,2.40
2022-07-25T01:44:35.645Z,2.80
2022-07-25T01:47:03.529Z,2.40
2022-07-25T01:49:31.576Z,2.40
2022-07-25T01:51:59.796Z,2.55
2022-07-25T01:54:29.231Z,2.65
2022-07-25T01:56:57.110Z,2.90
2022-07-25T01:59:25.182Z,2.80
2022-07-25T02:01:53.081Z,2.50
2022-07-25T02:04:21.129Z,2.55
2022-07-25T02:06:49.649Z,2.95
2022-07-25T02:09:17.515Z,2.50
2022-07-25T02:11:46.849Z,2.67
2022-07-25T02:14:14.914Z,2.60
2022-07-25T02:16:43.021Z,2.67
2022-07-25T02:19:10.977Z,2.67
2022-07-25T02:21:39.177Z,2.78
2022-07-25T02:24:08.144Z,2.58
2022-07-25T02:26:36.294Z,2.75
2022-07-25T02:29:05.976Z,3.10
2022-07-25T02:31:33.818Z,2.90
2022-07-25T02:34:01.764Z,2.92
2022-07-25T02:36:29.784Z,3.10
2022-07-25T02:38:57.688Z,2.72
2022-07-25T02:41:25.528Z,2.60
2022-07-25T02:43:53.729Z,2.70
2022-07-25T02:46:23.123Z,3.08
2022-07-25T02:48:51.150Z,2.80
2022-07-25T02:51:19.808Z,2.70
2022-07-25T02:53:57.113Z,2.60
2022-07-25T02:56:26.082Z,2.40
2022-07-25T02:58:57.548Z,3.08
2022-07-25T03:01:27.318Z,2.60
2022-07-25T03:03:55.302Z,2.72
2022-07-25T03:06:23.385Z,2.40
2022-07-25T03:08:51.539Z,2.58
2022-07-25T03:11:19.473Z,2.45
2022-07-25T03:13:47.569Z,2.40
2022-07-25T03:16:15.821Z,2.78
2022-07-25T03:18:45.095Z,2.90
2022-07-25T03:21:13.006Z,3.20
2022-07-25T03:23:41.213Z,2.80
2022-07-25T03:26:09.079Z,2.53
2022-07-25T03:28:36.924Z,2.35
2022-07-25T03:31:06.319Z,2.55
2022-07-25T03:33:35.053Z,2.58
2022-07-25T03:36:04.966Z,2.47
2022-07-25T03:38:32.996Z,2.55
2022-07-25T03:41:00.960Z,2.50
2022-07-25T03:43:29.756Z,2.63
2022-07-25T03:45:57.998Z,2.50
2022-07-25T03:48:25.974Z,2.50
2022-07-25T03:50:53.916Z,2.67
2022-07-25T03:53:23.592Z,2.83
2022-07-25T03:55:51.601Z,2.80
2022-07-25T03:58:19.554Z,2.72
2022-07-25T04:00:48.859Z,2.55
2022-07-25T04:03:17.043Z,2.60
2022-07-25T04:05:47.533Z,2.30
2022-07-25T04:08:15.864Z,2.65
2022-07-25T04:10:45.299Z,2.30
2022-07-25T04:13:13.255Z,3.20
2022-07-25T04:15:41.474Z,2.70
2022-07-25T04:18:10.123Z,3.08
2022-07-25T04:20:42.672Z,2.80
2022-07-25T04:23:10.633Z,2.90
2022-07-25T04:25:38.690Z,2.42
2022-07-25T04:28:08.008Z,2.90
2022-07-25T04:30:35.979Z,2.95
2022-07-25T04:33:04.170Z,2.70
2022-07-25T04:35:32.276Z,2.80
2022-07-25T04:38:00.290Z,3.05
2022-07-25T04:40:28.254Z,2.80
2022-07-25T04:42:56.542Z,2.40
2022-07-25T04:45:26.240Z,3.13
2022-07-25T04:47:54.279Z,2.90
2022-07-25T04:50:24.915Z,2.70
2022-07-25T04:52:54.070Z,2.70
2022-07-25T04:55:22.343Z,2.67
2022-07-25T04:57:50.431Z,3.17
2022-07-25T05:00:19.166Z,3.08
2022-07-25T05:02:48.432Z,2.80
2022-07-25T05:05:21.110Z,2.72
2022-07-25T05:07:50.000Z,2.70
2022-07-25T05:10:18.186Z,2.80
2022-07-25T05:12:46.195Z,2.40
2022-07-25T05:15:14.180Z,2.95
2022-07-25T05:17:42.105Z,2.60
2022-07-25T05:20:12.734Z,2.97
2022-07-25T05:22:40.718Z,2.90
2022-07-25T05:25:10.970Z,3.00
2022-07-25T05:27:39.872Z,2.78
2022-07-25T05:30:10.907Z,3.28
2022-07-25T05:32:39.593Z,3.08
2022-07-25T05:35:09.504Z,3.13
2022-07-25T05:37:39.344Z,3.00
2022-07-25T05:40:08.548Z,3.55
2022-07-25T05:42:36.712Z,3.22
2022-07-25T05:45:05.586Z,3.17
2022-07-25T05:47:33.649Z,3.53
2022-07-25T05:50:02.289Z,3.20
2022-07-25T05:52:30.472Z,3.00
2022-07-25T05:54:59.910Z,3.20
2022-07-25T05:57:28.030Z,3.28
2022-07-25T05:59:56.064Z,3.00
2022-07-25T06:02:24.300Z,3.15
2022-07-25T06:04:52.253Z,3.10
2022-07-25T06:07:20.233Z,3.15
2022-07-25T06:09:48.187Z,3.38
2022-07-25T06:12:17.514Z,3.00
2022-07-25T06:14:45.469Z,2.97
2022-07-25T06:17:13.559Z,3.50
2022-07-25T06:19:41.506Z,3.33
2022-07-25T06:22:09.491Z,3.58
2022-07-25T06:24:37.510Z,3.58
2022-07-25T06:27:05.938Z,3.53
2022-07-25T06:29:35.293Z,3.28
2022-07-25T06:32:03.240Z,3.70
2022-07-25T06:34:31.552Z,3.40
2022-07-25T06:36:59.484Z,3.85
2022-07-25T06:39:28.700Z,3.50
2022-07-25T06:41:57.444Z,3.42
2022-07-25T06:44:25.362Z,3.60
2022-07-25T06:46:54.730Z,3.60
2022-07-25T06:49:22.856Z,3.92
2022-07-25T06:51:50.853Z,3.42
2022-07-25T06:54:19.258Z,3.72
2022-07-25T06:56:47.514Z,3.70
2022-07-25T06:59:15.652Z,3.70
2022-07-25T07:01:48.204Z,3.50
2022-07-25T07:04:20.605Z,3.28
2022-07-25T07:06:48.741Z,3.78
2022-07-25T07:09:16.660Z,3.80
2022-07-25T07:11:44.649Z,3.72
2022-07-25T07:14:12.600Z,3.65
2022-07-25T07:16:41.408Z,3.42
2022-07-25T07:19:11.100Z,3.65
2022-07-25T07:21:40.488Z,3.42
2022-07-25T07:24:18.521Z,3.40
2022-07-25T07:26:52.952Z,3.20
2022-07-25T07:29:20.846Z,3.50
2022-07-25T07:31:48.856Z,3.60
2022-07-25T07:34:17.189Z,3.55
2022-07-25T07:36:46.471Z,3.83
2022-07-25T07:39:14.688Z,3.88
2022-07-25T07:41:42.886Z,3.67
2022-07-25T07:44:11.810Z,3.70
2022-07-25T07:46:39.742Z,3.58
2022-07-25T07:49:08.212Z,3.88
2022-07-25T07:51:36.497Z,3.60
2022-07-25T07:54:23.994Z,3.60
2022-07-25T07:56:52.015Z,3.90
2022-07-25T07:59:20.094Z,3.95
2022-07-25T08:01:48.138Z,3.83
2022-07-25T08:04:16.448Z,3.38
2022-07-25T08:06:44.453Z,3.88
2022-07-25T08:09:14.057Z,3.40
2022-07-25T08:11:42.078Z,3.72
2022-07-25T08:14:10.542Z,3.83
2022-07-25T08:16:38.864Z,3.70
2022-07-25T08:19:06.823Z,3.45
2022-07-25T08:21:34.788Z,3.67
2022-07-25T08:24:03.128Z,3.28
2022-07-25T08:26:33.969Z,3.58
2022-07-25T08:29:18.261Z,3.30
2022-07-25T08:31:47.088Z,3.30
2022-07-25T08:34:15.198Z,3.78
2022-07-25T08:36:43.150Z,3.35
2022-07-25T08:39:11.186Z,3.13
2022-07-25T08:41:42.370Z,3.58
2022-07-25T08:44:10.806Z,3.80
2022-07-25T08:46:41.880Z,3.47
2022-07-25T08:49:10.688Z,3.42
2022-07-25T08:51:40.954Z,3.65
2022-07-25T08:54:10.497Z,3.40
2022-07-25T08:56:38.829Z,3.35
2022-07-25T08:59:09.835Z,3.40
2022-07-25T09:01:40.651Z,3.50
2022-07-25T09:04:10.307Z,3.50
2022-07-25T09:06:38.735Z,3.40
2022-07-25T09:09:08.747Z,3.40
2022-07-25T09:11:38.275Z,3.05
2022-07-25T09:14:14.743Z,3.50
2022-07-25T09:16:45.061Z,3.42
2022-07-25T09:19:16.283Z,3.65
2022-07-25T09:21:46.012Z,3.50
2022-07-25T09:24:17.018Z,3.58
2022-07-25T09:26:49.548Z,3.55
2022-07-25T09:29:21.602Z,3.25
2022-07-25T09:31:50.657Z,3.25
2022-07-25T09:34:31.297Z,3.47
2022-07-25T09:36:59.584Z,3.45
2022-07-25T09:39:35.334Z,3.42
2022-07-25T09:42:04.276Z,3.13
2022-07-25T09:44:33.502Z,3.10
2022-07-25T09:47:12.020Z,3.28
2022-07-25T09:49:44.257Z,3.25
2022-07-25T09:52:13.231Z,3.47
2022-07-25T09:54:41.784Z,3.53
2022-07-25T09:57:09.742Z,3.20
2022-07-25T09:59:39.677Z,3.30
2022-07-25T10:02:10.731Z,3.40
2022-07-25T10:04:46.173Z,3.40
2022-07-25T10:07:16.876Z,3.58
2022-07-25T10:09:47.008Z,3.40
2022-07-25T10:12:19.423Z,3.50
2022-07-25T10:15:08.578Z,3.20
2022-07-25T10:17:37.988Z,3.30
2022-07-25T10:20:08.426Z,3.30
2022-07-25T10:22:55.691Z,3.50
2022-07-25T10:25:24.938Z,3.47
2022-07-25T10:28:00.206Z,3.67
2022-07-25T10:30:36.268Z,3.55
2022-07-25T10:33:07.722Z,3.65
2022-07-25T10:35:35.674Z,3.80
2022-07-25T10:38:06.671Z,3.60
2022-07-25T10:40:38.313Z,3.40
2022-07-25T10:43:10.963Z,3.28
2022-07-25T10:45:42.809Z,3.53
2022-07-25T10:48:13.070Z,3.83
2022-07-25T10:50:55.835Z,3.55
2022-07-25T10:53:38.499Z,3.70
2022-07-25T10:56:11.470Z,4.00
2022-07-25T10:58:51.102Z,3.40
2022-07-25T11:01:27.213Z,3.63
2022-07-25T11:03:56.585Z,3.67
2022-07-25T11:06:33.138Z,3.53
2022-07-25T11:09:01.512Z,4.05
2022-07-25T11:11:37.425Z,3.50
2022-07-25T11:14:07.037Z,3.75
2022-07-25T11:16:36.609Z,3.58
2022-07-25T11:19:04.977Z,3.70
2022-07-25T11:21:33.006Z,3.88
2022-07-25T11:24:00.990Z,4.00
2022-07-25T11:26:28.931Z,3.92
2022-07-25T11:28:56.842Z,3.88
2022-07-25T11:31:24.778Z,4.32
2022-07-25T11:33:54.603Z,3.97
2022-07-25T11:36:22.619Z,4.53
2022-07-25T11:38:51.151Z,3.80
2022-07-25T11:41:30.548Z,4.10
2022-07-25T11:43:58.500Z,3.70
2022-07-25T11:46:27.012Z,4.03
2022-07-25T11:49:06.468Z,4.07
2022-07-25T11:51:38.672Z,4.10
2022-07-25T11:54:12.079Z,3.80
2022-07-25T11:56:42.922Z,3.72
2022-07-25T11:59:11.699Z,4.13
2022-07-25T12:01:41.914Z,3.95
2022-07-25T12:04:14.327Z,4.18
2022-07-25T12:06:42.889Z,4.00
2022-07-25T12:09:18.794Z,4.25
2022-07-25T12:11:48.884Z,4.10
2022-07-25T12:14:17.461Z,4.10
2022-07-25T12:16:45.465Z,3.95
2022-07-25T12:19:23.266Z,4.25
2022-07-25T12:21:51.165Z,4.18
2022-07-25T12:24:19.071Z,4.00
2022-07-25T12:26:47.242Z,4.10
2022-07-25T12:29:15.157Z,3.72
2022-07-25T12:31:42.979Z,4.13
2022-07-25T12:34:11.066Z,3.92
2022-07-25T12:36:44.085Z,4.10
2022-07-25T12:39:12.810Z,3.78
2022-07-25T12:41:42.675Z,3.88
2022-07-25T12:44:11.011Z,4.07
2022-07-25T12:46:45.816Z,4.07
2022-07-25T12:49:17.108Z,4.22
2022-07-25T12:51:46.741Z,4.22
2022-07-25T12:54:21.763Z,3.95
2022-07-25T12:56:51.023Z,4.00
2022-07-25T12:59:18.992Z,3.33
2022-07-25T13:01:46.945Z,3.78
2022-07-25T13:04:15.242Z,3.80
2022-07-25T13:06:43.233Z,3.47
2022-07-25T13:09:12.502Z,3.40
2022-07-25T13:11:40.700Z,3.00
2022-07-25T13:14:08.755Z,3.92
2022-07-25T13:16:37.991Z,3.40
2022-07-25T13:19:06.658Z,3.40
2022-07-25T13:21:35.120Z,3.45
2022-07-25T13:24:03.028Z,3.20
2022-07-25T13:26:32.911Z,3.25
2022-07-25T13:29:01.031Z,3.08
2022-07-25T13:31:29.853Z,3.20
2022-07-25T13:33:58.465Z,3.63
2022-07-25T13:36:27.348Z,3.38
2022-07-25T13:38:55.379Z,3.40
2022-07-25T13:41:23.442Z,3.33
2022-07-25T13:43:52.705Z,3.38
2022-07-25T13:46:20.703Z,3.28
2022-07-25T13:48:49.718Z,3.60
2022-07-25T13:51:17.817Z,3.30
2022-07-25T13:53:45.967Z,3.08
2022-07-25T13:56:14.330Z,3.47
2022-07-25T13:58:42.215Z,3.40
2022-07-25T14:01:12.878Z,2.92
2022-07-25T14:03:41.190Z,2.97
2022-07-25T14:06:11.427Z,3.17
2022-07-25T14:08:41.511Z,2.75
2022-07-25T14:11:09.731Z,3.10
2022-07-25T14:13:38.030Z,2.90
2022-07-25T14:16:06.564Z,2.72
2022-07-25T14:18:36.089Z,3.08
2022-07-25T14:21:04.085Z,3.17
2022-07-25T14:23:32.013Z,3.05
2022-07-25T14:26:00.263Z,3.13
2022-07-25T14:28:28.221Z,3.13
2022-07-25T14:30:56.643Z,3.10
2022-07-25T14:33:24.965Z,3.00
2022-07-25T14:35:54.440Z,3.25
2022-07-25T14:38:22.515Z,3.50
2022-07-25T14:40:50.524Z,3.00
2022-07-25T14:43:18.482Z,3.05
2022-07-25T14:45:46.450Z,3.30
2022-07-25T14:48:14.365Z,2.92
2022-07-25T14:50:42.404Z,3.38
2022-07-25T14:53:12.875Z,3.15
2022-07-25T14:55:41.257Z,3.15
2022-07-25T14:58:09.399Z,3.75
2022-07-25T15:00:41.792Z,3.30
2022-07-25T15:03:10.533Z,3.10
2022-07-25T15:05:39.524Z,3.05
2022-07-25T15:08:10.149Z,3.13
2022-07-25T15:10:39.803Z,3.35
2022-07-25T15:13:29.849Z,3.65
2022-07-25T15:15:56.310Z,3.72
2022-07-25T15:18:24.185Z,3.22
2022-07-25T15:20:52.231Z,3.50
2022-07-25T15:23:21.219Z,3.10
2022-07-25T15:26:06.041Z,3.40
2022-07-25T15:28:34.862Z,3.42
2022-07-25T15:31:03.082Z,3.40
2022-07-25T15:33:31.462Z,3.15
2022-07-25T15:36:00.296Z,3.15
2022-07-25T15:38:29.115Z,3.65
2022-07-25T15:40:58.630Z,3.40
2022-07-25T15:43:27.450Z,3.70
2022-07-25T15:45:55.558Z,3.17
2022-07-25T15:48:23.737Z,3.22
2022-07-25T15:50:52.705Z,2.90
2022-07-25T15:53:20.780Z,3.40
2022-07-25T15:55:48.664Z,3.00
2022-07-25T15:58:18.214Z,3.50
2022-07-25T16:00:46.282Z,3.13
2022-07-25T16:03:14.928Z,2.95
2022-07-25T16:05:45.375Z,3.45
2022-07-25T16:08:13.387Z,3.97
2022-07-25T16:10:41.731Z,3.10
2022-07-25T16:13:09.728Z,2.90
2022-07-25T16:15:39.786Z,3.05
2022-07-25T16:18:07.776Z,3.20
2022-07-25T16:20:35.886Z,2.90
2022-07-25T16:23:04.207Z,3.20
2022-07-25T16:25:32.327Z,2.92
2022-07-25T16:28:01.058Z,2.88
2022-07-25T16:30:29.823Z,3.03
2022-07-25T16:32:59.194Z,2.50
2022-07-25T16:35:27.313Z,3.05
2022-07-25T16:37:55.338Z,2.53
2022-07-25T16:40:27.359Z,2.67
2022-07-25T16:42:59.893Z,2.80
2022-07-25T16:45:28.075Z,3.40
2022-07-25T16:47:56.320Z,3.20
2022-07-25T16:50:25.850Z,2.40
2022-07-25T16:52:54.354Z,4.13
2022-07-25T16:55:22.456Z,3.55
2022-07-25T16:57:50.629Z,4.25
2022-07-25T17:00:18.801Z,4.63
2022-07-25T17:02:46.822Z,2.80
2022-07-25T17:05:14.896Z,3.45
2022-07-25T17:07:44.258Z,5.45
2022-07-25T17:10:12.113Z,3.50
2022-07-25T17:12:40.233Z,3.05
2022-07-25T17:15:09.459Z,3.20
2022-07-25T17:17:37.342Z,2.85
2022-07-25T17:20:06.335Z,4.00
2022-07-25T17:22:34.354Z,5.85
2022-07-25T17:25:03.651Z,3.00
2022-07-25T17:27:31.882Z,3.08
2022-07-25T17:29:59.892Z,3.15
2022-07-25T17:32:29.887Z,3.33
2022-07-25T17:34:58.309Z,3.20
2022-07-25T17:37:27.720Z,4.53
2022-07-25T17:39:56.253Z,3.92
2022-07-25T17:42:25.896Z,3.20
2022-07-25T17:44:54.222Z,3.40
2022-07-25T17:47:23.587Z,3.15
2022-07-25T17:49:51.739Z,3.30
2022-07-25T17:52:19.643Z,3.70
2022-07-25T17:54:47.557Z,3.05
2022-07-25T17:57:15.810Z,3.50
2022-07-25T17:59:45.141Z,3.55
2022-07-25T18:02:14.251Z,3.47
2022-07-25T18:04:42.337Z,3.55
2022-07-25T18:07:10.682Z,4.00
2022-07-25T18:09:38.588Z,3.97
2022-07-25T18:12:07.789Z,3.33
2022-07-25T18:14:35.701Z,3.47
2022-07-25T18:17:06.227Z,3.25
2022-07-25T18:19:34.458Z,3.35
2022-07-25T18:22:02.299Z,2.80
2022-07-25T18:24:30.931Z,3.30
2022-07-25T18:26:59.724Z,3.05
2022-07-25T18:29:27.737Z,3.63
2022-07-25T18:31:55.651Z,3.50
2022-07-25T18:34:25.180Z,3.45
2022-07-25T18:36:53.138Z,3.70
2022-07-25T18:39:21.020Z,3.80
2022-07-25T18:41:49.164Z,3.53
2022-07-25T18:44:17.616Z,3.80
2022-07-25T18:46:46.927Z,3.33
2022-07-25T18:49:15.229Z,3.75
2022-07-25T18:51:44.630Z,3.45
2022-07-25T18:54:12.471Z,3.55
2022-07-25T18:56:40.633Z,3.50
2022-07-25T18:59:09.292Z,3.47
2022-07-25T19:01:37.706Z,3.67
2022-07-25T19:04:06.748Z,3.67
2022-07-25T19:06:35.073Z,3.60
2022-07-25T19:09:04.954Z,3.80
2022-07-25T19:11:33.454Z,3.70
2022-07-25T19:14:01.430Z,3.72
2022-07-25T19:16:29.336Z,3.15
2022-07-25T19:18:57.590Z,3.50
2022-07-25T19:21:25.867Z,3.35
2022-07-25T19:23:53.842Z,3.63
2022-07-25T19:26:23.498Z,3.70
2022-07-25T19:28:51.755Z,3.83
2022-07-25T19:31:19.739Z,3.45
2022-07-25T19:33:48.121Z,3.83
2022-07-25T19:36:16.059Z,3.63
2022-07-25T19:38:43.999Z,3.58
2022-07-25T19:41:12.207Z,3.20
2022-07-25T19:43:41.817Z,3.35
2022-07-25T19:46:09.804Z,3.20
2022-07-25T19:48:38.307Z,3.38
2022-07-25T19:51:06.523Z,3.15
2022-07-25T19:53:34.413Z,3.13
2022-07-25T19:56:02.652Z,3.75
2022-07-25T19:58:34.100Z,3.17
2022-07-25T20:01:06.236Z,3.28
2022-07-25T20:03:34.211Z,3.33
2022-07-25T20:06:07.576Z,3.35
2022-07-25T20:08:36.419Z,3.58
2022-07-25T20:11:04.436Z,3.45
2022-07-25T20:13:32.332Z,3.25
2022-07-25T20:16:00.622Z,3.72
2022-07-25T20:18:29.855Z,3.53
2022-07-25T20:20:57.846Z,3.25
2022-07-25T20:23:26.925Z,3.50
2022-07-25T20:25:55.089Z,3.72
2022-07-25T20:28:22.937Z,3.35
2022-07-25T20:30:51.157Z,3.60
2022-07-25T20:33:19.547Z,3.70
2022-07-25T20:35:48.797Z,3.03
2022-07-25T20:38:17.029Z,3.30
2022-07-25T20:40:49.589Z,3.30
2022-07-25T20:43:18.359Z,3.40
2022-07-25T20:45:47.524Z,3.70
2022-07-25T20:48:15.683Z,3.17
2022-07-25T20:50:44.765Z,3.72
2022-07-25T20:53:14.188Z,3.70
2022-07-25T20:55:42.341Z,3.60
2022-07-25T20:58:10.658Z,3.15
2022-07-25T21:00:38.582Z,3.60
2022-07-25T21:03:08.096Z,3.42
2022-07-25T21:05:37.933Z,3.95
2022-07-25T21:08:06.443Z,4.13
2022-07-25T21:10:35.872Z,3.35
2022-07-25T21:13:04.066Z,3.63
2022-07-25T21:15:32.056Z,3.00
2022-07-25T21:18:00.093Z,3.60
2022-07-25T21:20:28.522Z,3.63
2022-07-25T21:22:56.414Z,3.80
2022-07-25T21:25:24.401Z,3.55
2022-07-25T21:27:53.841Z,4.47
2022-07-25T21:30:21.765Z,3.42
2022-07-25T21:32:49.741Z,3.45
2022-07-25T21:35:18.362Z,3.63
2022-07-25T21:37:46.266Z,3.58
2022-07-25T21:40:14.988Z,4.45
2022-07-25T21:42:43.602Z,4.32
2022-07-25T21:45:13.616Z,4.18
2022-07-25T21:47:41.509Z,5.15
2022-07-25T21:50:28.358Z,4.95
2022-07-25T21:52:56.540Z,4.15
2022-07-25T21:55:25.189Z,4.88
2022-07-25T21:57:54.158Z,5.00
2022-07-25T22:00:23.706Z,4.88
2022-07-25T22:02:51.800Z,4.55
2022-07-25T22:05:20.864Z,5.32
2022-07-25T22:07:48.884Z,4.95
2022-07-25T22:10:19.005Z,4.75
2022-07-25T22:12:47.097Z,4.72
2022-07-25T22:15:15.790Z,4.97
2022-07-25T22:17:49.540Z,5.63
2022-07-25T22:20:19.225Z,6.43
2022-07-25T22:22:47.826Z,5.35
2022-07-25T22:25:16.686Z,5.63
2022-07-25T22:27:45.242Z,5.18
2022-07-25T22:30:18.796Z,5.35
2022-07-25T22:32:49.606Z,5.72
2022-07-25T22:35:18.087Z,5.22
2022-07-25T22:37:46.122Z,4.72
2022-07-25T22:40:14.836Z,5.10
2022-07-25T22:42:42.790Z,5.43
2022-07-25T22:45:11.656Z,5.57
2022-07-25T22:47:39.872Z,5.53
2022-07-25T22:50:10.880Z,5.38
2022-07-25T22:52:38.778Z,5.65
2022-07-25T22:55:07.670Z,5.72
2022-07-25T22:57:36.983Z,5.25
2022-07-25T23:00:08.688Z,5.70
2022-07-25T23:02:36.718Z,5.30
2022-07-25T23:05:05.281Z,5.45
2022-07-25T23:07:35.198Z,5.38
2022-07-25T23:10:03.569Z,5.53
2022-07-25T23:12:31.440Z,5.53
2022-07-25T23:14:59.498Z,5.10
2022-07-25T23:17:27.425Z,5.45
2022-07-25T23:19:56.819Z,5.43
2022-07-25T23:22:26.918Z,6.30
2022-07-25T23:24:56.301Z,5.30
2022-07-25T23:27:24.976Z,6.40
2022-07-25T23:29:52.974Z,5.80
2022-07-25T23:32:21.074Z,5.68
2022-07-25T23:34:49.033Z,6.68
2022-07-25T23:37:17.203Z,6.97
2022-07-25T23:39:45.195Z,7.20
2022-07-25T23:42:14.442Z,7.38
2022-07-25T23:44:44.453Z,8.15
2022-07-25T23:47:12.652Z,7.43
2022-07-25T23:49:41.175Z,8.20
2022-07-25T23:52:09.224Z,7.68
2022-07-25T23:54:38.676Z,8.38
2022-07-25T23:57:07.237Z,7.55
2022-07-25T23:59:37.529Z,8.05
